sensor_id;sensor_type;location;lat;lon;timestamp;temperature;humidity
25138;DHT22;13112;50.986;4.354;2022-08-25T00:00:42;22.70;99.90
25138;DHT22;13112;50.986;4.354;2022-08-25T00:03:08;22.60;99.90
25138;DHT22;13112;50.986;4.354;2022-08-25T00:05:34;22.60;99.90
25138;DHT22;13112;50.986;4.354;2022-08-25T00:08:00;22.70;99.90
25138;DHT22;13112;50.986;4.354;2022-08-25T00:10:27;22.80;99.90
25138;DHT22;13112;50.986;4.354;2022-08-25T00:12:53;22.80;99.90
25138;DHT22;13112;50.986;4.354;2022-08-25T00:15:19;22.80;99.90
25138;DHT22;13112;50.986;4.354;2022-08-25T00:17:47;22.80;99.90
25138;DHT22;13112;50.986;4.354;2022-08-25T00:20:14;22.70;99.90
25138;DHT22;13112;50.986;4.354;2022-08-25T00:22:39;22.70;99.90
25138;DHT22;13112;50.986;4.354;2022-08-25T00:25:06;22.70;99.90
25138;DHT22;13112;50.986;4.354;2022-08-25T00:27:33;22.70;99.90
25138;DHT22;13112;50.986;4.354;2022-08-25T00:29:58;22.60;99.90
25138;DHT22;13112;50.986;4.354;2022-08-25T00:32:25;22.40;99.90
25138;DHT22;13112;50.986;4.354;2022-08-25T00:34:51;22.40;99.90
25138;DHT22;13112;50.986;4.354;2022-08-25T00:37:18;22.10;99.90
25138;DHT22;13112;50.986;4.354;2022-08-25T00:39:44;21.80;99.90
25138;DHT22;13112;50.986;4.354;2022-08-25T00:42:11;21.70;99.90
25138;DHT22;13112;50.986;4.354;2022-08-25T00:44:37;21.60;99.90
25138;DHT22;13112;50.986;4.354;2022-08-25T00:47:04;21.60;99.90
25138;DHT22;13112;50.986;4.354;2022-08-25T00:49:38;21.80;99.90
25138;DHT22;13112;50.986;4.354;2022-08-25T00:52:20;21.80;99.90
25138;DHT22;13112;50.986;4.354;2022-08-25T00:54:56;21.60;99.90
25138;DHT22;13112;50.986;4.354;2022-08-25T00:57:33;21.60;99.90
25138;DHT22;13112;50.986;4.354;2022-08-25T01:00:04;21.50;99.90
25138;DHT22;13112;50.986;4.354;2022-08-25T01:02:31;21.40;99.90
25138;DHT22;13112;50.986;4.354;2022-08-25T01:04:56;21.40;99.90
25138;DHT22;13112;50.986;4.354;2022-08-25T01:07:23;21.20;99.90
25138;DHT22;13112;50.986;4.354;2022-08-25T01:09:49;21.00;99.90
25138;DHT22;13112;50.986;4.354;2022-08-25T01:12:16;21.00;99.90
25138;DHT22;13112;50.986;4.354;2022-08-25T01:14:43;20.90;99.90
25138;DHT22;13112;50.986;4.354;2022-08-25T01:17:11;21.00;99.90
25138;DHT22;13112;50.986;4.354;2022-08-25T01:19:37;21.00;99.90
25138;DHT22;13112;50.986;4.354;2022-08-25T01:22:03;21.00;99.90
25138;DHT22;13112;50.986;4.354;2022-08-25T01:24:55;20.90;99.90
25138;DHT22;13112;50.986;4.354;2022-08-25T01:27:22;20.80;99.90
25138;DHT22;13112;50.986;4.354;2022-08-25T01:29:48;20.80;99.90
25138;DHT22;13112;50.986;4.354;2022-08-25T01:32:14;20.60;99.90
25138;DHT22;13112;50.986;4.354;2022-08-25T01:34:42;20.40;99.90
25138;DHT22;13112;50.986;4.354;2022-08-25T01:37:10;20.10;99.90
25138;DHT22;13112;50.986;4.354;2022-08-25T01:39:36;20.00;99.90
25138;DHT22;13112;50.986;4.354;2022-08-25T01:44:29;20.30;99.90
25138;DHT22;13112;50.986;4.354;2022-08-25T01:46:55;20.50;99.90
25138;DHT22;13112;50.986;4.354;2022-08-25T01:49:21;20.60;99.90
25138;DHT22;13112;50.986;4.354;2022-08-25T01:51:51;20.70;99.90
25138;DHT22;13112;50.986;4.354;2022-08-25T01:54:18;20.80;99.90
25138;DHT22;13112;50.986;4.354;2022-08-25T01:56:43;20.60;99.90
25138;DHT22;13112;50.986;4.354;2022-08-25T01:59:09;20.60;99.90
25138;DHT22;13112;50.986;4.354;2022-08-25T02:01:35;20.70;99.90
25138;DHT22;13112;50.986;4.354;2022-08-25T02:04:00;20.80;99.90
25138;DHT22;13112;50.986;4.354;2022-08-25T02:06:30;20.80;99.90
25138;DHT22;13112;50.986;4.354;2022-08-25T02:09:03;20.80;99.90
25138;DHT22;13112;50.986;4.354;2022-08-25T02:11:30;20.60;99.90
25138;DHT22;13112;50.986;4.354;2022-08-25T02:13:56;20.50;99.90
25138;DHT22;13112;50.986;4.354;2022-08-25T02:16:27;20.40;99.90
25138;DHT22;13112;50.986;4.354;2022-08-25T02:18:54;20.20;99.90
25138;DHT22;13112;50.986;4.354;2022-08-25T02:21:20;20.10;99.90
25138;DHT22;13112;50.986;4.354;2022-08-25T02:23:46;20.00;99.90
25138;DHT22;13112;50.986;4.354;2022-08-25T02:26:13;19.80;99.90
25138;DHT22;13112;50.986;4.354;2022-08-25T02:28:46;19.70;99.90
25138;DHT22;13112;50.986;4.354;2022-08-25T02:31:13;19.60;99.90
25138;DHT22;13112;50.986;4.354;2022-08-25T02:33:39;19.60;99.90
25138;DHT22;13112;50.986;4.354;2022-08-25T02:36:05;19.70;99.90
25138;DHT22;13112;50.986;4.354;2022-08-25T02:38:31;19.70;99.90
25138;DHT22;13112;50.986;4.354;2022-08-25T02:40:58;19.90;99.90
25138;DHT22;13112;50.986;4.354;2022-08-25T02:43:25;20.10;99.90
25138;DHT22;13112;50.986;4.354;2022-08-25T02:45:52;20.20;99.90
25138;DHT22;13112;50.986;4.354;2022-08-25T02:48:18;20.20;99.90
25138;DHT22;13112;50.986;4.354;2022-08-25T02:50:49;20.20;99.90
25138;DHT22;13112;50.986;4.354;2022-08-25T02:53:17;20.20;99.90
25138;DHT22;13112;50.986;4.354;2022-08-25T02:55:43;20.30;99.90
25138;DHT22;13112;50.986;4.354;2022-08-25T02:58:09;20.30;99.90
25138;DHT22;13112;50.986;4.354;2022-08-25T03:00:35;20.30;99.90
25138;DHT22;13112;50.986;4.354;2022-08-25T03:03:01;20.20;99.90
25138;DHT22;13112;50.986;4.354;2022-08-25T03:05:27;20.00;99.90
25138;DHT22;13112;50.986;4.354;2022-08-25T03:07:52;19.90;99.90
25138;DHT22;13112;50.986;4.354;2022-08-25T03:10:18;20.00;99.90
25138;DHT22;13112;50.986;4.354;2022-08-25T03:12:45;19.90;99.90
25138;DHT22;13112;50.986;4.354;2022-08-25T03:15:12;20.00;99.90
25138;DHT22;13112;50.986;4.354;2022-08-25T03:17:41;20.00;99.90
25138;DHT22;13112;50.986;4.354;2022-08-25T03:20:07;20.00;99.90
25138;DHT22;13112;50.986;4.354;2022-08-25T03:22:33;20.00;99.90
25138;DHT22;13112;50.986;4.354;2022-08-25T03:24:59;20.00;99.90
25138;DHT22;13112;50.986;4.354;2022-08-25T03:27:45;20.00;99.90
25138;DHT22;13112;50.986;4.354;2022-08-25T03:30:11;20.00;99.90
25138;DHT22;13112;50.986;4.354;2022-08-25T03:32:38;20.00;99.90
25138;DHT22;13112;50.986;4.354;2022-08-25T03:35:04;20.00;99.90
25138;DHT22;13112;50.986;4.354;2022-08-25T03:37:30;19.90;99.90
25138;DHT22;13112;50.986;4.354;2022-08-25T03:39:56;19.90;99.90
25138;DHT22;13112;50.986;4.354;2022-08-25T03:42:21;19.90;99.90
25138;DHT22;13112;50.986;4.354;2022-08-25T03:44:47;19.80;99.90
25138;DHT22;13112;50.986;4.354;2022-08-25T03:47:13;19.80;99.90
25138;DHT22;13112;50.986;4.354;2022-08-25T03:49:39;19.80;99.90
25138;DHT22;13112;50.986;4.354;2022-08-25T03:52:05;19.80;99.90
25138;DHT22;13112;50.986;4.354;2022-08-25T03:54:30;19.80;99.90
25138;DHT22;13112;50.986;4.354;2022-08-25T03:56:56;19.80;99.90
25138;DHT22;13112;50.986;4.354;2022-08-25T03:59:22;19.80;99.90
25138;DHT22;13112;50.986;4.354;2022-08-25T04:01:47;19.80;99.90
25138;DHT22;13112;50.986;4.354;2022-08-25T04:04:14;19.80;99.90
25138;DHT22;13112;50.986;4.354;2022-08-25T04:06:41;19.80;99.90
25138;DHT22;13112;50.986;4.354;2022-08-25T04:09:08;19.80;99.90
25138;DHT22;13112;50.986;4.354;2022-08-25T04:11:34;19.80;99.90
25138;DHT22;13112;50.986;4.354;2022-08-25T04:14:00;19.70;99.90
25138;DHT22;13112;50.986;4.354;2022-08-25T04:16:29;19.70;99.90
25138;DHT22;13112;50.986;4.354;2022-08-25T04:18:56;19.70;99.90
25138;DHT22;13112;50.986;4.354;2022-08-25T04:21:23;19.70;99.90
25138;DHT22;13112;50.986;4.354;2022-08-25T04:23:50;19.70;99.90
25138;DHT22;13112;50.986;4.354;2022-08-25T04:26:38;19.70;99.90
25138;DHT22;13112;50.986;4.354;2022-08-25T04:29:06;19.70;99.90
25138;DHT22;13112;50.986;4.354;2022-08-25T04:31:32;19.70;99.90
25138;DHT22;13112;50.986;4.354;2022-08-25T04:34:01;19.60;99.90
25138;DHT22;13112;50.986;4.354;2022-08-25T04:36:26;19.60;99.90
25138;DHT22;13112;50.986;4.354;2022-08-25T04:38:52;19.50;99.90
25138;DHT22;13112;50.986;4.354;2022-08-25T04:41:21;19.50;99.90
25138;DHT22;13112;50.986;4.354;2022-08-25T04:43:47;19.50;99.90
25138;DHT22;13112;50.986;4.354;2022-08-25T04:46:21;19.50;99.90
25138;DHT22;13112;50.986;4.354;2022-08-25T04:48:49;19.40;99.90
25138;DHT22;13112;50.986;4.354;2022-08-25T04:51:22;19.40;99.90
25138;DHT22;13112;50.986;4.354;2022-08-25T04:53:48;19.40;99.90
25138;DHT22;13112;50.986;4.354;2022-08-25T04:56:16;19.40;99.90
25138;DHT22;13112;50.986;4.354;2022-08-25T04:58:42;19.40;99.90
25138;DHT22;13112;50.986;4.354;2022-08-25T05:01:14;19.40;99.90
25138;DHT22;13112;50.986;4.354;2022-08-25T05:03:42;19.50;99.90
25138;DHT22;13112;50.986;4.354;2022-08-25T05:06:08;19.50;99.90
25138;DHT22;13112;50.986;4.354;2022-08-25T05:08:35;19.50;99.90
25138;DHT22;13112;50.986;4.354;2022-08-25T05:11:09;19.50;99.90
25138;DHT22;13112;50.986;4.354;2022-08-25T05:13:35;19.60;99.90
25138;DHT22;13112;50.986;4.354;2022-08-25T05:16:01;19.70;99.90
25138;DHT22;13112;50.986;4.354;2022-08-25T05:18:29;19.70;99.90
25138;DHT22;13112;50.986;4.354;2022-08-25T05:20:56;19.80;99.90
25138;DHT22;13112;50.986;4.354;2022-08-25T05:23:23;19.90;99.90
25138;DHT22;13112;50.986;4.354;2022-08-25T05:25:50;19.90;99.90
25138;DHT22;13112;50.986;4.354;2022-08-25T05:28:17;20.00;99.90
25138;DHT22;13112;50.986;4.354;2022-08-25T05:30:50;20.10;99.90
25138;DHT22;13112;50.986;4.354;2022-08-25T05:33:16;20.30;99.90
25138;DHT22;13112;50.986;4.354;2022-08-25T05:35:43;20.40;99.90
25138;DHT22;13112;50.986;4.354;2022-08-25T05:38:10;20.60;99.90
25138;DHT22;13112;50.986;4.354;2022-08-25T05:40:36;20.70;99.90
25138;DHT22;13112;50.986;4.354;2022-08-25T05:43:02;20.90;99.90
25138;DHT22;13112;50.986;4.354;2022-08-25T05:45:27;21.00;99.90
25138;DHT22;13112;50.986;4.354;2022-08-25T05:47:53;21.20;99.90
25138;DHT22;13112;50.986;4.354;2022-08-25T05:50:19;21.30;99.90
25138;DHT22;13112;50.986;4.354;2022-08-25T05:52:44;21.50;99.90
25138;DHT22;13112;50.986;4.354;2022-08-25T05:55:11;21.60;99.90
25138;DHT22;13112;50.986;4.354;2022-08-25T05:57:36;21.80;99.90
25138;DHT22;13112;50.986;4.354;2022-08-25T06:00:04;21.90;99.90
25138;DHT22;13112;50.986;4.354;2022-08-25T06:02:30;22.10;99.90
25138;DHT22;13112;50.986;4.354;2022-08-25T06:05:14;22.30;99.90
25138;DHT22;13112;50.986;4.354;2022-08-25T06:07:41;22.50;99.90
25138;DHT22;13112;50.986;4.354;2022-08-25T06:10:08;22.70;99.90
25138;DHT22;13112;50.986;4.354;2022-08-25T06:12:36;22.90;99.90
25138;DHT22;13112;50.986;4.354;2022-08-25T06:15:03;23.20;99.90
25138;DHT22;13112;50.986;4.354;2022-08-25T06:17:30;23.30;99.90
25138;DHT22;13112;50.986;4.354;2022-08-25T06:19:56;23.50;99.90
25138;DHT22;13112;50.986;4.354;2022-08-25T06:22:22;23.60;99.90
25138;DHT22;13112;50.986;4.354;2022-08-25T06:24:50;23.80;99.90
25138;DHT22;13112;50.986;4.354;2022-08-25T06:27:16;23.80;99.90
25138;DHT22;13112;50.986;4.354;2022-08-25T06:29:42;23.90;99.90
25138;DHT22;13112;50.986;4.354;2022-08-25T06:32:07;24.00;99.90
25138;DHT22;13112;50.986;4.354;2022-08-25T06:34:33;24.20;99.90
25138;DHT22;13112;50.986;4.354;2022-08-25T06:36:59;24.20;99.90
25138;DHT22;13112;50.986;4.354;2022-08-25T06:39:24;24.40;99.90
25138;DHT22;13112;50.986;4.354;2022-08-25T06:41:55;24.40;99.90
25138;DHT22;13112;50.986;4.354;2022-08-25T06:44:22;24.60;99.90
25138;DHT22;13112;50.986;4.354;2022-08-25T06:46:49;24.70;99.90
25138;DHT22;13112;50.986;4.354;2022-08-25T06:49:15;24.80;99.90
25138;DHT22;13112;50.986;4.354;2022-08-25T06:51:41;24.70;99.90
25138;DHT22;13112;50.986;4.354;2022-08-25T06:54:08;24.80;99.90
25138;DHT22;13112;50.986;4.354;2022-08-25T06:56:36;25.00;99.90
25138;DHT22;13112;50.986;4.354;2022-08-25T06:59:03;25.20;99.90
25138;DHT22;13112;50.986;4.354;2022-08-25T07:01:29;25.40;99.90
25138;DHT22;13112;50.986;4.354;2022-08-25T07:03:57;25.50;99.90
25138;DHT22;13112;50.986;4.354;2022-08-25T07:06:25;25.70;99.90
25138;DHT22;13112;50.986;4.354;2022-08-25T07:08:52;26.00;99.90
25138;DHT22;13112;50.986;4.354;2022-08-25T07:11:18;26.20;99.90
25138;DHT22;13112;50.986;4.354;2022-08-25T07:13:46;26.40;99.90
25138;DHT22;13112;50.986;4.354;2022-08-25T07:16:12;26.60;99.90
25138;DHT22;13112;50.986;4.354;2022-08-25T07:18:42;26.80;99.90
25138;DHT22;13112;50.986;4.354;2022-08-25T07:21:08;27.30;99.90
25138;DHT22;13112;50.986;4.354;2022-08-25T07:23:35;27.50;99.90
25138;DHT22;13112;50.986;4.354;2022-08-25T07:26:11;28.00;99.90
25138;DHT22;13112;50.986;4.354;2022-08-25T07:28:37;28.50;99.90
25138;DHT22;13112;50.986;4.354;2022-08-25T07:31:03;28.60;99.90
25138;DHT22;13112;50.986;4.354;2022-08-25T07:33:29;28.70;99.90
25138;DHT22;13112;50.986;4.354;2022-08-25T07:35:55;29.00;99.90
25138;DHT22;13112;50.986;4.354;2022-08-25T07:38:22;29.80;99.90
25138;DHT22;13112;50.986;4.354;2022-08-25T07:40:47;30.90;99.90
25138;DHT22;13112;50.986;4.354;2022-08-25T07:43:20;31.90;99.90
25138;DHT22;13112;50.986;4.354;2022-08-25T07:45:47;32.50;99.90
25138;DHT22;13112;50.986;4.354;2022-08-25T07:48:14;33.40;99.90
25138;DHT22;13112;50.986;4.354;2022-08-25T07:50:42;34.50;99.90
25138;DHT22;13112;50.986;4.354;2022-08-25T07:53:10;35.00;98.20
25138;DHT22;13112;50.986;4.354;2022-08-25T07:55:36;34.70;98.40
25138;DHT22;13112;50.986;4.354;2022-08-25T07:58:04;35.80;97.20
25138;DHT22;13112;50.986;4.354;2022-08-25T08:00:31;36.70;95.60
25138;DHT22;13112;50.986;4.354;2022-08-25T08:02:59;37.10;94.10
25138;DHT22;13112;50.986;4.354;2022-08-25T08:05:26;37.30;92.60
25138;DHT22;13112;50.986;4.354;2022-08-25T08:07:53;36.90;91.70
25138;DHT22;13112;50.986;4.354;2022-08-25T08:10:19;36.40;91.80
25138;DHT22;13112;50.986;4.354;2022-08-25T08:12:45;35.90;92.20
25138;DHT22;13112;50.986;4.354;2022-08-25T08:15:11;35.00;92.50
25138;DHT22;13112;50.986;4.354;2022-08-25T08:17:38;34.30;92.90
25138;DHT22;13112;50.986;4.354;2022-08-25T08:20:04;34.10;93.80
25138;DHT22;13112;50.986;4.354;2022-08-25T08:22:37;34.10;94.00
25138;DHT22;13112;50.986;4.354;2022-08-25T08:25:03;34.20;94.60
25138;DHT22;13112;50.986;4.354;2022-08-25T08:27:29;34.30;93.60
25138;DHT22;13112;50.986;4.354;2022-08-25T08:29:55;34.60;93.50
25138;DHT22;13112;50.986;4.354;2022-08-25T08:32:21;35.60;92.80
25138;DHT22;13112;50.986;4.354;2022-08-25T08:34:47;36.00;90.80
25138;DHT22;13112;50.986;4.354;2022-08-25T08:37:14;36.90;90.20
25138;DHT22;13112;50.986;4.354;2022-08-25T08:39:41;38.00;88.70
25138;DHT22;13112;50.986;4.354;2022-08-25T08:46:09;39.60;83.30
25138;DHT22;13112;50.986;4.354;2022-08-25T08:48:21;39.80;80.20
25138;DHT22;13112;50.986;4.354;2022-08-25T08:56:07;40.50;75.40
25138;DHT22;13112;50.986;4.354;2022-08-25T08:58:49;41.40;74.10
25138;DHT22;13112;50.986;4.354;2022-08-25T09:01:22;40.80;71.00
25138;DHT22;13112;50.986;4.354;2022-08-25T09:03:53;39.20;71.30
25138;DHT22;13112;50.986;4.354;2022-08-25T09:06:43;39.00;70.90
25138;DHT22;13112;50.986;4.354;2022-08-25T09:09:12;40.90;70.00
25138;DHT22;13112;50.986;4.354;2022-08-25T09:12:03;41.10;68.30
25138;DHT22;13112;50.986;4.354;2022-08-25T09:17:37;42.10;59.20
25138;DHT22;13112;50.986;4.354;2022-08-25T09:23:27;42.40;57.70
25138;DHT22;13112;50.986;4.354;2022-08-25T09:25:49;40.90;56.20
25138;DHT22;13112;50.986;4.354;2022-08-25T09:28:18;38.00;59.10
25138;DHT22;13112;50.986;4.354;2022-08-25T09:31:11;37.50;60.60
25138;DHT22;13112;50.986;4.354;2022-08-25T09:33:40;38.70;58.70
25138;DHT22;13112;50.986;4.354;2022-08-25T09:36:06;39.40;58.20
25138;DHT22;13112;50.986;4.354;2022-08-25T09:38:32;41.20;56.10
25138;DHT22;13112;50.986;4.354;2022-08-25T09:40:59;42.70;55.00
25138;DHT22;13112;50.986;4.354;2022-08-25T09:43:32;43.70;53.30
25138;DHT22;13112;50.986;4.354;2022-08-25T09:46:27;43.80;51.50
25138;DHT22;13112;50.986;4.354;2022-08-25T09:48:55;44.50;50.50
25138;DHT22;13112;50.986;4.354;2022-08-25T09:51:32;45.00;49.80
25138;DHT22;13112;50.986;4.354;2022-08-25T09:56:54;43.30;47.50
25138;DHT22;13112;50.986;4.354;2022-08-25T09:59:24;42.50;49.10
25138;DHT22;13112;50.986;4.354;2022-08-25T10:01:51;41.20;50.00
25138;DHT22;13112;50.986;4.354;2022-08-25T10:04:37;41.00;50.40
25138;DHT22;13112;50.986;4.354;2022-08-25T10:07:37;43.40;47.80
25138;DHT22;13112;50.986;4.354;2022-08-25T10:10:16;41.40;47.30
25138;DHT22;13112;50.986;4.354;2022-08-25T10:12:44;39.60;49.60
25138;DHT22;13112;50.986;4.354;2022-08-25T10:17:48;43.10;47.50
25138;DHT22;13112;50.986;4.354;2022-08-25T10:20:22;42.40;47.70
25138;DHT22;13112;50.986;4.354;2022-08-25T10:22:48;43.70;45.30
25138;DHT22;13112;50.986;4.354;2022-08-25T10:25:27;44.90;44.60
25138;DHT22;13112;50.986;4.354;2022-08-25T10:30:55;46.70;42.50
25138;DHT22;13112;50.986;4.354;2022-08-25T10:38:53;48.80;39.20
25138;DHT22;13112;50.986;4.354;2022-08-25T10:44:30;49.20;37.80
25138;DHT22;13112;50.986;4.354;2022-08-25T10:59:07;43.00;39.30
25138;DHT22;13112;50.986;4.354;2022-08-25T11:09:39;46.00;39.60
25138;DHT22;13112;50.986;4.354;2022-08-25T11:12:27;46.80;39.60
25138;DHT22;13112;50.986;4.354;2022-08-25T11:15:02;48.10;38.00
25138;DHT22;13112;50.986;4.354;2022-08-25T11:18:10;48.90;36.90
25138;DHT22;13112;50.986;4.354;2022-08-25T11:20:59;47.10;36.30
25138;DHT22;13112;50.986;4.354;2022-08-25T11:23:30;46.40;35.80
25138;DHT22;13112;50.986;4.354;2022-08-25T11:26:02;44.40;37.00
25138;DHT22;13112;50.986;4.354;2022-08-25T11:28:52;43.40;38.00
25138;DHT22;13112;50.986;4.354;2022-08-25T11:31:22;41.10;40.10
25138;DHT22;13112;50.986;4.354;2022-08-25T11:33:49;40.30;40.10
25138;DHT22;13112;50.986;4.354;2022-08-25T11:36:24;42.30;39.70
25138;DHT22;13112;50.986;4.354;2022-08-25T11:44:38;45.50;36.80
25138;DHT22;13112;50.986;4.354;2022-08-25T11:47:23;45.00;38.10
25138;DHT22;13112;50.986;4.354;2022-08-25T11:50:02;47.10;37.00
25138;DHT22;13112;50.986;4.354;2022-08-25T11:55:19;46.90;36.40
25138;DHT22;13112;50.986;4.354;2022-08-25T11:57:49;45.80;35.80
25138;DHT22;13112;50.986;4.354;2022-08-25T12:00:39;46.30;35.50
25138;DHT22;13112;50.986;4.354;2022-08-25T12:06:27;42.30;37.80
25138;DHT22;13112;50.986;4.354;2022-08-25T12:09:17;39.60;41.00
25138;DHT22;13112;50.986;4.354;2022-08-25T12:11:52;41.60;40.50
25138;DHT22;13112;50.986;4.354;2022-08-25T12:24:54;38.80;42.60
25138;DHT22;13112;50.986;4.354;2022-08-25T12:33:19;44.30;38.40
25138;DHT22;13112;50.986;4.354;2022-08-25T12:38:46;45.00;36.20
25138;DHT22;13112;50.986;4.354;2022-08-25T12:41:19;39.60;40.50
25138;DHT22;13112;50.986;4.354;2022-08-25T12:43:48;37.00;44.00
25138;DHT22;13112;50.986;4.354;2022-08-25T12:48:59;38.70;42.60
25138;DHT22;13112;50.986;4.354;2022-08-25T12:54:24;43.30;38.40
25138;DHT22;13112;50.986;4.354;2022-08-25T12:56:56;42.00;38.60
25138;DHT22;13112;50.986;4.354;2022-08-25T12:59:43;41.00;40.80
25138;DHT22;13112;50.986;4.354;2022-08-25T13:02:38;39.30;41.70
25138;DHT22;13112;50.986;4.354;2022-08-25T13:05:29;37.60;43.60
25138;DHT22;13112;50.986;4.354;2022-08-25T13:16:58;43.50;38.80
25138;DHT22;13112;50.986;4.354;2022-08-25T13:19:28;45.80;37.00
25138;DHT22;13112;50.986;4.354;2022-08-25T13:21:55;45.60;36.90
25138;DHT22;13112;50.986;4.354;2022-08-25T13:26:56;42.50;38.70
25138;DHT22;13112;50.986;4.354;2022-08-25T13:29:30;40.60;40.10
25138;DHT22;13112;50.986;4.354;2022-08-25T13:32:01;40.40;42.10
25138;DHT22;13112;50.986;4.354;2022-08-25T13:34:30;40.30;42.00
25138;DHT22;13112;50.986;4.354;2022-08-25T13:37:24;39.80;42.40
25138;DHT22;13112;50.986;4.354;2022-08-25T13:42:34;38.20;53.10
25138;DHT22;13112;50.986;4.354;2022-08-25T13:45:03;38.40;55.60
25138;DHT22;13112;50.986;4.354;2022-08-25T13:47:34;38.10;56.50
25138;DHT22;13112;50.986;4.354;2022-08-25T13:50:17;37.00;56.50
25138;DHT22;13112;50.986;4.354;2022-08-25T13:52:52;36.40;58.10
25138;DHT22;13112;50.986;4.354;2022-08-25T13:55:21;35.80;59.10
25138;DHT22;13112;50.986;4.354;2022-08-25T13:57:47;36.80;57.50
25138;DHT22;13112;50.986;4.354;2022-08-25T14:00:33;37.90;54.80
25138;DHT22;13112;50.986;4.354;2022-08-25T14:03:03;39.30;53.40
25138;DHT22;13112;50.986;4.354;2022-08-25T14:05:36;39.30;52.90
25138;DHT22;13112;50.986;4.354;2022-08-25T14:08:03;38.10;54.20
25138;DHT22;13112;50.986;4.354;2022-08-25T14:15:36;37.10;56.90
25138;DHT22;13112;50.986;4.354;2022-08-25T14:18:21;38.60;54.80
25138;DHT22;13112;50.986;4.354;2022-08-25T14:20:52;39.80;53.00
25138;DHT22;13112;50.986;4.354;2022-08-25T14:23:21;39.70;52.80
25138;DHT22;13112;50.986;4.354;2022-08-25T14:25:50;39.90;52.30
25138;DHT22;13112;50.986;4.354;2022-08-25T14:28:19;39.20;52.60
25138;DHT22;13112;50.986;4.354;2022-08-25T14:30:48;39.50;52.60
25138;DHT22;13112;50.986;4.354;2022-08-25T14:33:16;39.10;51.70
25138;DHT22;13112;50.986;4.354;2022-08-25T14:35:47;38.60;52.20
25138;DHT22;13112;50.986;4.354;2022-08-25T14:38:14;37.70;53.40
25138;DHT22;13112;50.986;4.354;2022-08-25T14:40:40;37.30;54.30
25138;DHT22;13112;50.986;4.354;2022-08-25T14:43:06;37.30;55.50
25138;DHT22;13112;50.986;4.354;2022-08-25T14:45:34;37.50;55.40
25138;DHT22;13112;50.986;4.354;2022-08-25T14:48:04;37.60;54.80
25138;DHT22;13112;50.986;4.354;2022-08-25T14:50:31;37.30;54.30
25138;DHT22;13112;50.986;4.354;2022-08-25T14:52:57;37.20;54.40
25138;DHT22;13112;50.986;4.354;2022-08-25T14:55:24;37.10;55.30
25138;DHT22;13112;50.986;4.354;2022-08-25T14:57:49;37.10;55.90
25138;DHT22;13112;50.986;4.354;2022-08-25T15:00:15;36.80;55.10
25138;DHT22;13112;50.986;4.354;2022-08-25T15:02:42;36.70;56.40
25138;DHT22;13112;50.986;4.354;2022-08-25T15:05:10;36.20;57.60
25138;DHT22;13112;50.986;4.354;2022-08-25T15:07:37;35.80;58.50
25138;DHT22;13112;50.986;4.354;2022-08-25T15:10:21;35.60;59.40
25138;DHT22;13112;50.986;4.354;2022-08-25T15:12:47;35.20;59.70
25138;DHT22;13112;50.986;4.354;2022-08-25T15:15:13;34.80;62.70
25138;DHT22;13112;50.986;4.354;2022-08-25T15:17:40;34.40;66.00
25138;DHT22;13112;50.986;4.354;2022-08-25T15:20:06;34.20;67.50
25138;DHT22;13112;50.986;4.354;2022-08-25T15:22:32;33.90;68.70
25138;DHT22;13112;50.986;4.354;2022-08-25T15:24:58;33.50;69.70
25138;DHT22;13112;50.986;4.354;2022-08-25T15:27:24;33.20;70.10
25138;DHT22;13112;50.986;4.354;2022-08-25T15:29:49;33.10;71.40
25138;DHT22;13112;50.986;4.354;2022-08-25T15:32:15;33.00;73.00
25138;DHT22;13112;50.986;4.354;2022-08-25T15:34:41;32.80;74.10
25138;DHT22;13112;50.986;4.354;2022-08-25T15:37:15;32.60;75.20
25138;DHT22;13112;50.986;4.354;2022-08-25T15:39:42;32.50;75.90
25138;DHT22;13112;50.986;4.354;2022-08-25T15:42:09;32.40;77.00
25138;DHT22;13112;50.986;4.354;2022-08-25T15:44:39;32.30;77.50
25138;DHT22;13112;50.986;4.354;2022-08-25T15:47:04;32.10;78.90
25138;DHT22;13112;50.986;4.354;2022-08-25T15:49:30;31.80;80.70
25138;DHT22;13112;50.986;4.354;2022-08-25T15:51:56;31.60;82.00
25138;DHT22;13112;50.986;4.354;2022-08-25T15:54:22;31.40;83.40
25138;DHT22;13112;50.986;4.354;2022-08-25T15:56:49;31.40;83.00
25138;DHT22;13112;50.986;4.354;2022-08-25T15:59:14;31.30;82.20
25138;DHT22;13112;50.986;4.354;2022-08-25T16:01:41;31.30;83.70
25138;DHT22;13112;50.986;4.354;2022-08-25T16:04:08;31.30;84.40
25138;DHT22;13112;50.986;4.354;2022-08-25T16:06:34;31.30;85.40
25138;DHT22;13112;50.986;4.354;2022-08-25T16:09:01;31.20;87.00
25138;DHT22;13112;50.986;4.354;2022-08-25T16:11:29;31.30;88.10
25138;DHT22;13112;50.986;4.354;2022-08-25T16:13:56;31.20;89.60
25138;DHT22;13112;50.986;4.354;2022-08-25T16:16:24;31.20;90.60
25138;DHT22;13112;50.986;4.354;2022-08-25T16:18:51;31.10;91.20
25138;DHT22;13112;50.986;4.354;2022-08-25T16:21:20;30.90;91.80
25138;DHT22;13112;50.986;4.354;2022-08-25T16:23:48;30.90;92.40
25138;DHT22;13112;50.986;4.354;2022-08-25T16:26:14;30.60;93.00
25138;DHT22;13112;50.986;4.354;2022-08-25T16:28:41;30.40;94.00
25138;DHT22;13112;50.986;4.354;2022-08-25T16:31:12;30.40;94.90
25138;DHT22;13112;50.986;4.354;2022-08-25T16:33:39;30.30;95.40
25138;DHT22;13112;50.986;4.354;2022-08-25T16:38:36;30.00;96.20
25138;DHT22;13112;50.986;4.354;2022-08-25T16:41:07;30.00;96.40
25138;DHT22;13112;50.986;4.354;2022-08-25T16:43:32;29.90;96.30
25138;DHT22;13112;50.986;4.354;2022-08-25T16:46:00;29.70;97.00
25138;DHT22;13112;50.986;4.354;2022-08-25T16:48:27;29.70;97.80
25138;DHT22;13112;50.986;4.354;2022-08-25T16:50:53;29.50;98.30
25138;DHT22;13112;50.986;4.354;2022-08-25T16:53:18;29.40;98.70
25138;DHT22;13112;50.986;4.354;2022-08-25T16:56:04;29.30;99.80
25138;DHT22;13112;50.986;4.354;2022-08-25T16:58:32;29.20;99.90
25138;DHT22;13112;50.986;4.354;2022-08-25T17:01:06;29.10;99.90
25138;DHT22;13112;50.986;4.354;2022-08-25T17:03:33;28.80;99.90
25138;DHT22;13112;50.986;4.354;2022-08-25T17:05:59;28.70;99.90
25138;DHT22;13112;50.986;4.354;2022-08-25T17:08:24;28.70;99.90
25138;DHT22;13112;50.986;4.354;2022-08-25T17:10:54;28.50;99.90
25138;DHT22;13112;50.986;4.354;2022-08-25T17:13:27;28.30;99.90
25138;DHT22;13112;50.986;4.354;2022-08-25T17:15:53;28.20;99.90
25138;DHT22;13112;50.986;4.354;2022-08-25T17:18:19;28.20;99.90
25138;DHT22;13112;50.986;4.354;2022-08-25T17:20:45;28.20;99.90
25138;DHT22;13112;50.986;4.354;2022-08-25T17:23:11;28.10;99.90
25138;DHT22;13112;50.986;4.354;2022-08-25T17:25:37;28.00;99.90
25138;DHT22;13112;50.986;4.354;2022-08-25T17:28:04;28.00;99.90
25138;DHT22;13112;50.986;4.354;2022-08-25T17:30:29;28.00;99.90
25138;DHT22;13112;50.986;4.354;2022-08-25T17:32:56;27.80;99.90
25138;DHT22;13112;50.986;4.354;2022-08-25T17:35:22;27.80;99.90